Time;durP1;ratioP1;P1;durP2;ratioP2;P2;SDS_P1;SDS_P2;PMS_P1;PMS_P2;Temp;Humidity;BMP_temperature;BMP_pressure;BME280_temperature;BME280_humidity;BME280_pressure;Samples;Min_cycle;Max_cycle;Signal;HPM_P1;HPM_P2
2022/06/07 00:00:16;;;;;;;5.62;4.08;;;;;;;25.54;49.38;100809.14;1728844;81;21020;-86
2022/06/07 00:02:42;;;;;;;4.20;3.35;;;;;;;25.54;49.38;100809.14;1728949;81;21056;-87
2022/06/07 00:05:09;;;;;;;5.03;4.00;;;;;;;25.53;49.38;100811.11;1710779;82;21052;-87
2022/06/07 00:07:35;;;;;;;4.30;3.72;;;;;;;25.54;49.38;100805.78;1673632;84;21037;-87
2022/06/07 00:10:01;;;;;;;4.28;3.70;;;;;;;25.53;49.36;100807.48;1675487;83;21033;-87
2022/06/07 00:12:28;;;;;;;5.83;3.87;;;;;;;25.53;49.38;100798.58;1673660;84;21105;-86
2022/06/07 00:14:54;;;;;;;4.50;3.55;;;;;;;25.53;49.38;100803.30;1684607;83;21075;-87
2022/06/07 00:17:26;;;;;;;4.72;3.80;;;;;;;25.53;49.38;100797.19;1696327;84;21056;-86
2022/06/07 00:19:53;;;;;;;5.53;3.90;;;;;;;25.53;49.37;100799.13;1696430;84;21095;-87
2022/06/07 00:22:19;;;;;;;4.65;3.60;;;;;;;25.54;49.37;100799.39;1696816;81;21076;-86
2022/06/07 00:24:46;;;;;;;5.65;3.85;;;;;;;25.53;49.37;100798.58;1725506;83;21566;-87
2022/06/07 00:27:13;;;;;;;4.97;3.87;;;;;;;25.54;49.37;100800.78;1725277;81;21115;-87
2022/06/07 00:29:39;;;;;;;5.40;3.75;;;;;;;25.53;49.36;100800.52;1702504;83;21063;-87
2022/06/07 00:32:08;;;;;;;5.42;4.15;;;;;;;25.53;49.37;100789.37;1725622;81;20981;-87
2022/06/07 00:34:34;;;;;;;4.97;3.80;;;;;;;25.53;49.34;100790.77;1725574;82;21009;-86
2022/06/07 00:37:01;;;;;;;5.65;3.80;;;;;;;25.53;49.36;100785.20;1725593;81;21032;-85
2022/06/07 00:39:28;;;;;;;5.87;4.08;;;;;;;25.53;49.34;100786.04;1725644;81;21051;-86
2022/06/07 00:41:54;;;;;;;4.65;3.80;;;;;;;25.53;49.34;100782.41;1725385;81;21071;-87
2022/06/07 00:44:32;;;;;;;7.03;4.00;;;;;;;25.52;49.34;100777.99;1724823;82;21099;-87
2022/06/07 00:47:17;;;;;;;4.08;3.52;;;;;;;25.52;49.34;100775.20;1724965;81;21110;-87
2022/06/07 00:49:55;;;;;;;5.55;3.95;;;;;;;25.51;49.32;100768.82;1724391;81;21091;-87
2022/06/07 00:52:24;;;;;;;5.42;3.65;;;;;;;25.51;49.33;100775.78;1725308;82;21088;-87
2022/06/07 00:54:50;;;;;;;7.28;3.95;;;;;;;25.51;49.31;100773.58;1724856;81;21156;-87
2022/06/07 00:57:17;;;;;;;6.08;4.17;;;;;;;25.51;49.31;100773.00;1725125;81;21102;-87
2022/06/07 00:59:43;;;;;;;4.55;3.72;;;;;;;25.50;49.31;100770.01;1749368;80;21070;-87
2022/06/07 01:02:10;;;;;;;5.03;3.80;;;;;;;25.49;49.33;100762.81;1763390;80;21015;-87
2022/06/07 01:04:36;;;;;;;4.90;3.80;;;;;;;25.51;49.32;100768.00;1763995;80;21533;-87
2022/06/07 01:12:33;;;;;;;4.62;3.75;;;;;;;25.50;49.32;100766.41;1763999;80;21039;-86
2022/06/07 01:15:00;;;;;;;5.70;3.80;;;;;;;25.50;49.32;100771.98;1757764;80;21028;-86
2022/06/07 01:17:26;;;;;;;4.50;3.70;;;;;;;25.48;49.30;100769.53;1749665;82;21605;-86
2022/06/07 01:19:53;;;;;;;5.62;3.60;;;;;;;25.49;49.31;100769.77;1748285;82;21539;-87
2022/06/07 01:22:19;;;;;;;6.53;3.80;;;;;;;25.48;49.33;100772.31;1748268;80;21371;-87
2022/06/07 01:24:46;;;;;;;4.92;3.45;;;;;;;25.48;49.30;100764.78;1748197;80;21023;-87
2022/06/07 01:27:18;;;;;;;4.50;3.72;;;;;;;25.49;49.32;100762.81;1747894;82;21421;-86
2022/06/07 01:29:44;;;;;;;5.08;3.72;;;;;;;25.48;49.30;100757.81;1748102;80;21702;-87
2022/06/07 01:32:11;;;;;;;5.72;4.03;;;;;;;25.48;49.30;100761.17;1748247;80;21218;-87
2022/06/07 01:34:42;;;;;;;4.22;3.60;;;;;;;25.49;49.31;100765.59;1748317;82;21024;-87
2022/06/07 01:37:10;;;;;;;5.47;3.87;;;;;;;25.48;49.30;100761.99;1748156;80;20995;-87
2022/06/07 01:42:22;;;;;;;6.50;3.45;;;;;;;25.48;49.30;100763.96;1748148;80;21078;-86
2022/06/07 01:44:49;;;;;;;5.30;3.52;;;;;;;25.48;49.29;100759.78;1748253;82;21064;-87
2022/06/07 01:47:19;;;;;;;5.70;3.92;;;;;;;25.47;49.28;100761.75;1748141;80;21028;-87
2022/06/07 01:49:46;;;;;;;4.97;3.65;;;;;;;25.48;49.28;100755.61;1747651;80;21044;-87
2022/06/07 01:52:14;;;;;;;4.22;3.55;;;;;;;25.47;49.29;100756.19;1748268;82;20965;-87
2022/06/07 01:54:40;;;;;;;4.35;3.60;;;;;;;25.47;49.28;100749.80;1748182;82;21473;-86
2022/06/07 01:57:07;;;;;;;4.03;3.30;;;;;;;25.47;49.29;100756.19;1748016;82;21414;-87
2022/06/07 01:59:35;;;;;;;5.87;3.65;;;;;;;25.46;49.29;100753.77;1748158;82;21098;-87
2022/06/07 02:02:01;;;;;;;5.92;3.35;;;;;;;25.47;49.30;100752.00;1724814;82;21629;-87
2022/06/07 02:04:28;;;;;;;4.22;3.25;;;;;;;25.47;49.28;100753.40;1747898;80;21739;-87
2022/06/07 02:07:00;;;;;;;5.25;3.72;;;;;;;25.48;49.28;100748.64;1747974;82;21052;-86
2022/06/07 02:09:27;;;;;;;4.78;3.45;;;;;;;25.46;49.28;100743.41;1747821;80;21113;-87
2022/06/07 02:11:53;;;;;;;5.17;3.58;;;;;;;25.46;49.28;100738.45;1724358;82;21099;-86
2022/06/07 02:14:19;;;;;;;5.80;3.72;;;;;;;25.46;49.29;100741.23;1724811;82;21099;-86
2022/06/07 02:16:46;;;;;;;4.58;3.30;;;;;;;25.46;49.28;100739.23;1728883;81;21337;-87
2022/06/07 02:19:12;;;;;;;4.62;3.40;;;;;;;25.47;49.28;100745.62;1728893;82;21135;-87
2022/06/07 02:21:44;;;;;;;4.50;3.83;;;;;;;25.46;49.28;100748.20;1729186;83;21092;-87
2022/06/07 02:24:11;;;;;;;3.70;3.27;;;;;;;25.46;49.26;100746.20;1707830;83;21041;-87
2022/06/07 02:26:48;;;;;;;6.42;3.85;;;;;;;25.46;49.27;100743.41;1701919;82;21077;-87
2022/06/07 02:29:25;;;;;;;3.45;2.87;;;;;;;25.45;49.28;100737.63;1701526;83;21480;-87
2022/06/07 02:31:58;;;;;;;5.03;3.70;;;;;;;25.45;49.24;100739.02;1701715;82;21057;-86
2022/06/07 02:34:25;;;;;;;4.25;3.30;;;;;;;25.44;49.25;100740.19;1701947;83;21016;-87
2022/06/07 02:36:55;;;;;;;3.85;3.17;;;;;;;25.45;49.27;100741.81;1701881;84;21014;-87
2022/06/07 02:39:21;;;;;;;4.72;3.60;;;;;;;25.44;49.26;100745.75;1701939;82;21049;-85
2022/06/07 02:41:47;;;;;;;4.55;3.40;;;;;;;25.44;49.25;100741.58;1702431;82;21053;-86
2022/06/07 02:44:14;;;;;;;4.42;3.45;;;;;;;25.45;49.23;100747.96;1702190;83;21068;-87
2022/06/07 02:46:40;;;;;;;5.20;3.37;;;;;;;25.44;49.23;100748.54;1701623;84;21107;-87
2022/06/07 02:49:07;;;;;;;4.80;3.20;;;;;;;25.44;49.24;100747.14;1701942;82;21093;-86
2022/06/07 02:51:33;;;;;;;3.75;3.40;;;;;;;25.44;49.22;100752.72;1702119;82;21018;-87
2022/06/07 02:54:00;;;;;;;5.17;3.60;;;;;;;25.44;49.23;100751.33;1701900;82;21002;-87
2022/06/07 02:56:26;;;;;;;3.95;3.55;;;;;;;25.43;49.22;100748.30;1703174;82;21595;-87
2022/06/07 02:58:53;;;;;;;5.58;3.60;;;;;;;25.45;49.22;100750.75;1702504;82;21163;-87
2022/06/07 03:01:19;;;;;;;4.30;3.33;;;;;;;25.45;49.21;100753.53;1701784;83;21493;-87
2022/06/07 03:03:45;;;;;;;5.03;3.20;;;;;;;25.44;49.21;100755.50;1702193;83;21097;-87
2022/06/07 03:06:12;;;;;;;5.75;3.62;;;;;;;25.44;49.18;100754.69;1702413;82;20998;-86
2022/06/07 03:08:45;;;;;;;5.53;3.58;;;;;;;25.44;49.19;100755.50;1721817;82;21006;-86
2022/06/07 03:11:11;;;;;;;4.97;3.70;;;;;;;25.43;49.18;100758.05;1729314;83;21064;-87
2022/06/07 03:13:38;;;;;;;5.08;3.40;;;;;;;25.44;49.18;100760.26;1729141;81;21005;-87
2022/06/07 03:16:04;;;;;;;4.80;3.65;;;;;;;25.43;49.16;100758.05;1739619;81;21724;-87
2022/06/07 03:18:31;;;;;;;6.50;3.72;;;;;;;25.44;49.18;100763.86;1747869;81;20968;-86
2022/06/07 03:21:03;;;;;;;5.80;3.45;;;;;;;25.42;49.17;100763.38;1748367;82;21082;-87
2022/06/07 03:23:30;;;;;;;3.83;3.40;;;;;;;25.42;49.16;100760.59;1748120;80;21196;-87
2022/06/07 03:26:11;;;;;;;7.22;3.80;;;;;;;25.44;49.16;100765.25;1748304;82;21071;-87
2022/06/07 03:28:38;;;;;;;5.05;3.75;;;;;;;25.44;49.15;100767.22;1748373;82;20940;-87
2022/06/07 03:31:07;;;;;;;5.53;4.00;;;;;;;25.43;49.13;100767.80;1748390;82;20964;-86
2022/06/07 03:33:34;;;;;;;4.37;3.58;;;;;;;25.43;49.16;100766.41;1748221;80;21035;-86
2022/06/07 03:36:07;;;;;;;4.85;3.40;;;;;;;25.42;49.16;100760.59;1748073;80;21186;-87
2022/06/07 03:38:34;;;;;;;4.37;3.58;;;;;;;25.43;49.16;100762.81;1747362;82;20972;-86
2022/06/07 03:41:01;;;;;;;4.70;3.77;;;;;;;25.43;49.16;100758.63;1748490;82;21007;-87
2022/06/07 03:43:27;;;;;;;5.20;3.60;;;;;;;25.43;49.17;100758.63;1748138;82;21008;-86
2022/06/07 03:45:53;;;;;;;5.42;3.85;;;;;;;25.43;49.17;100757.23;1748362;80;21048;-87
2022/06/07 03:48:20;;;;;;;4.62;3.70;;;;;;;25.43;49.18;100761.41;1748263;81;21278;-87
2022/06/07 03:50:46;;;;;;;5.60;3.90;;;;;;;25.43;49.16;100763.63;1747961;80;21610;-86
2022/06/07 03:53:13;;;;;;;4.92;3.80;;;;;;;25.44;49.18;100758.86;1748312;82;21016;-86
2022/06/07 03:55:44;;;;;;;6.37;3.65;;;;;;;25.43;49.16;100758.05;1748516;81;21031;-87
2022/06/07 03:58:11;;;;;;;5.40;3.52;;;;;;;25.44;49.16;100763.05;1748250;82;21071;-87
2022/06/07 04:00:37;;;;;;;5.50;3.70;;;;;;;25.43;49.18;100759.45;1748461;81;21040;-87
2022/06/07 04:03:04;;;;;;;5.22;3.47;;;;;;;25.43;49.17;100760.84;1747972;80;21522;-86
2022/06/07 04:05:30;;;;;;;5.75;3.77;;;;;;;25.42;49.14;100759.20;1748253;82;21103;-86
2022/06/07 04:08:12;;;;;;;4.80;3.58;;;;;;;25.41;49.12;100754.01;1748302;82;21027;-86
2022/06/07 04:10:50;;;;;;;6.25;3.98;;;;;;;25.40;49.13;100762.94;1728751;80;21157;-86
2022/06/07 04:13:18;;;;;;;4.67;3.42;;;;;;;25.39;49.09;100759.92;1726365;81;20991;-87
2022/06/07 04:15:44;;;;;;;4.60;3.70;;;;;;;25.38;49.16;100763.04;1747973;80;21051;-87
2022/06/07 04:18:11;;;;;;;5.08;3.83;;;;;;;25.37;49.22;100762.84;1744482;80;21000;-86
2022/06/07 04:20:37;;;;;;;8.25;3.58;;;;;;;25.35;49.26;100764.57;1706400;81;21020;-86
2022/06/07 04:23:05;;;;;;;6.83;4.08;;;;;;;25.34;49.23;100760.16;1720078;83;21064;-86
2022/06/07 04:25:34;;;;;;;5.50;3.40;;;;;;;25.35;49.13;100760.39;1707650;81;21368;-87
2022/06/07 04:28:01;;;;;;;9.30;3.77;;;;;;;25.33;49.02;100761.91;1713103;80;21092;-83
2022/06/07 04:30:28;;;;;;;10.93;3.92;;;;;;;25.30;48.99;100757.03;1709382;81;21056;-83
2022/06/07 04:32:54;;;;;;;6.58;3.85;;;;;;;25.29;49.00;100761.78;1732413;80;21547;-83
2022/06/07 04:35:21;;;;;;;6.45;3.62;;;;;;;25.28;48.94;100762.15;1737592;82;21020;-82
2022/06/07 04:37:49;;;;;;;5.70;3.65;;;;;;;25.26;48.85;100754.71;1719005;82;21668;-81
2022/06/07 04:40:15;;;;;;;5.17;3.30;;;;;;;25.23;48.77;100763.20;1698449;83;21056;-79
2022/06/07 04:42:43;;;;;;;4.72;3.52;;;;;;;25.22;48.69;100767.14;1697547;82;21075;-79
2022/06/07 04:45:14;;;;;;;7.30;3.72;;;;;;;25.20;48.61;100763.91;1694177;83;21021;-78
2022/06/07 04:47:41;;;;;;;6.45;3.20;;;;;;;25.18;48.45;100764.83;1697243;82;21136;-77
2022/06/07 04:50:10;;;;;;;12.43;3.85;;;;;;;25.16;48.34;100769.95;1709833;81;21094;-77
2022/06/07 04:52:37;;;;;;;13.20;3.37;;;;;;;25.13;48.19;100767.02;1691758;82;21127;-79
2022/06/07 04:55:06;;;;;;;9.83;3.05;;;;;;;25.12;48.11;100770.99;1714830;81;21059;-81
2022/06/07 04:57:32;;;;;;;10.40;3.40;;;;;;;25.10;48.13;100767.73;1711386;82;21112;-84
2022/06/07 05:00:02;;;;;;;11.90;3.20;;;;;;;25.08;48.10;100774.25;1716166;80;21669;-82
2022/06/07 05:02:28;;;;;;;12.05;3.47;;;;;;;25.06;48.00;100766.80;1689991;81;21932;-79
2022/06/07 05:04:54;;;;;;;13.95;3.85;;;;;;;25.06;47.89;100772.37;1714329;80;21088;-85
2022/06/07 05:07:20;;;;;;;16.12;3.85;;;;;;;25.05;47.75;100774.34;1717003;82;21021;-91
2022/06/07 05:09:48;;;;;;;10.80;3.30;;;;;;;25.04;47.56;100776.89;1717917;82;21593;-86
2022/06/07 05:12:14;;;;;;;16.10;3.20;;;;;;;24.99;47.31;100777.14;1713832;82;21020;-82
2022/06/07 05:14:44;;;;;;;24.40;4.00;;;;;;;24.93;47.32;100784.09;1709386;81;21559;-83
2022/06/07 05:17:10;;;;;;;20.32;3.70;;;;;;;24.93;47.29;100781.30;1711651;81;21017;-79
2022/06/07 05:19:37;;;;;;;12.23;3.47;;;;;;;24.95;47.28;100784.57;1721410;81;21020;-80
2022/06/07 05:22:04;;;;;;;17.48;3.67;;;;;;;24.95;47.23;100785.96;1720829;80;21083;-82
2022/06/07 05:24:31;;;;;;;11.95;3.30;;;;;;;24.95;47.27;100784.57;1712658;81;21147;-80
2022/06/07 05:26:59;;;;;;;9.23;3.00;;;;;;;24.97;47.20;100783.63;1712879;81;22158;-79
2022/06/07 05:29:29;;;;;;;15.20;3.30;;;;;;;24.97;47.01;100786.41;1710658;81;21056;-80
2022/06/07 05:31:56;;;;;;;4.90;3.10;;;;;;;24.94;46.90;100785.72;1715710;81;21830;-80
2022/06/07 05:34:22;;;;;;;12.70;4.40;;;;;;;24.92;46.96;100790.23;1720001;81;21063;-83
2022/06/07 05:36:49;;;;;;;10.95;4.08;;;;;;;24.92;47.01;100792.20;1714496;80;21630;-82
2022/06/07 05:39:22;;;;;;;9.80;2.58;;;;;;;24.91;46.97;100790.56;1713529;81;21069;-83
2022/06/07 05:41:49;;;;;;;7.75;3.00;;;;;;;24.89;47.11;100792.91;1727960;80;21064;-82
2022/06/07 05:44:23;;;;;;;4.97;2.37;;;;;;;24.89;47.04;100794.30;1715454;79;21665;-82
2022/06/07 05:46:49;;;;;;;6.05;2.75;;;;;;;24.91;46.77;100798.92;1713474;81;21060;-82
2022/06/07 05:49:16;;;;;;;14.15;4.20;;;;;;;24.90;46.65;100794.53;1713539;81;21111;-85
2022/06/07 05:51:42;;;;;;;11.43;3.20;;;;;;;24.90;46.78;100791.75;1719110;81;21175;-85
2022/06/07 05:54:10;;;;;;;13.30;3.30;;;;;;;24.89;46.73;100796.50;1716044;81;21126;-84
2022/06/07 05:56:38;;;;;;;9.48;3.17;;;;;;;24.92;46.68;100797.19;1725187;79;21111;-86
2022/06/07 05:59:06;;;;;;;12.18;3.15;;;;;;;24.93;46.65;100804.39;1720956;80;21712;-83
2022/06/07 06:01:45;;;;;;;13.43;4.85;;;;;;;24.96;46.79;100804.26;1730346;80;21123;-83
2022/06/07 06:04:15;;;;;;;15.30;5.42;;;;;;;24.98;46.73;100799.98;1710223;81;21222;-82
2022/06/07 06:06:42;;;;;;;21.07;4.08;;;;;;;25.00;46.76;100794.05;1721490;81;21542;-85
2022/06/07 06:11:54;;;;;;;14.13;4.75;;;;;;;25.04;46.62;100790.80;1721931;81;21097;-85
2022/06/07 06:14:26;;;;;;;6.62;3.17;;;;;;;25.05;46.36;100786.87;1717285;81;21087;-84
2022/06/07 06:17:01;;;;;;;9.93;4.20;;;;;;;25.07;46.19;100792.91;1721099;81;21162;-82
2022/06/07 06:19:29;;;;;;;6.80;3.17;;;;;;;25.08;46.09;100788.95;1695322;81;38337;-86
2022/06/07 06:21:55;;;;;;;8.25;2.87;;;;;;;25.10;45.84;100788.03;1698346;83;21069;-84
2022/06/07 06:24:23;;;;;;;3.92;2.50;;;;;;;25.11;45.56;100784.09;1693917;82;21074;-86
2022/06/07 06:26:55;;;;;;;4.95;2.92;;;;;;;25.11;45.37;100784.09;1687790;82;21092;-84
2022/06/07 06:29:19;;;;;;;7.33;3.37;;;;;;;25.11;45.12;100779.11;1698596;82;22279;-83
2022/06/07 06:31:49;;;;;;;6.58;3.02;;;;;;;25.09;44.91;100779.44;1697979;81;21041;-84
2022/06/07 06:34:15;;;;;;;6.28;3.05;;;;;;;25.10;44.79;100776.90;1681283;83;21056;-83
2022/06/07 06:36:42;;;;;;;3.90;2.22;;;;;;;25.10;44.58;100776.08;1704043;81;21108;-85
2022/06/07 06:39:09;;;;;;;4.15;2.72;;;;;;;25.10;44.51;100767.16;1699704;82;21115;-84
2022/06/07 06:41:41;;;;;;;4.62;2.60;;;;;;;25.11;44.43;100777.14;1672321;83;21016;-83
2022/06/07 06:44:08;;;;;;;3.92;3.15;;;;;;;25.11;44.36;100767.39;1678924;82;21876;-83
2022/06/07 06:46:37;;;;;;;4.55;2.50;;;;;;;25.12;44.26;100768.21;1694779;81;22246;-85
2022/06/07 06:49:04;;;;;;;9.35;3.35;;;;;;;25.12;44.23;100764.81;1683626;83;21059;-84
2022/06/07 06:51:31;;;;;;;19.55;3.72;;;;;;;25.11;44.27;100763.22;1674015;82;21067;-81
2022/06/07 06:54:02;;;;;;;15.13;3.87;;;;;;;25.13;44.54;100765.05;1698074;82;21002;-80
2022/06/07 06:56:29;;;;;;;14.13;3.98;;;;;;;25.15;44.73;100760.55;1695872;81;21124;-84
2022/06/07 06:58:56;;;;;;;20.55;3.85;;;;;;;25.16;44.88;100769.95;1689599;81;21120;-84
2022/06/07 07:01:27;;;;;;;19.73;3.75;;;;;;;25.17;45.04;100764.59;1684361;82;21208;-81
2022/06/07 07:03:54;;;;;;;11.78;3.42;;;;;;;25.17;45.08;100761.80;1672214;84;21108;-80
2022/06/07 07:06:21;;;;;;;12.30;3.30;;;;;;;25.18;44.96;100763.44;1696017;81;21099;-82
2022/06/07 07:08:48;;;;;;;5.95;2.37;;;;;;;25.19;44.88;100765.64;1699530;82;21287;-83
2022/06/07 07:11:27;;;;;;;8.08;3.58;;;;;;;25.19;44.77;100760.07;1704529;82;21116;-79
2022/06/07 07:14:00;;;;;;;7.75;3.40;;;;;;;25.20;44.74;100760.31;1695655;82;21097;-82
2022/06/07 07:16:29;;;;;;;7.40;3.90;;;;;;;25.20;44.64;100761.70;1718916;81;21125;-80
2022/06/07 07:18:56;;;;;;;5.78;3.75;;;;;;;25.19;44.49;100753.11;1688620;82;22266;-81
2022/06/07 07:21:27;;;;;;;5.05;3.10;;;;;;;25.20;44.42;100756.13;1678598;82;21132;-82
2022/06/07 07:23:53;;;;;;;6.40;2.85;;;;;;;25.20;44.33;100758.92;1684965;82;21108;-81
2022/06/07 07:26:23;;;;;;;5.03;2.90;;;;;;;25.20;44.26;100754.73;1715915;82;21615;-83
2022/06/07 07:28:52;;;;;;;7.60;4.42;;;;;;;25.22;44.27;100757.97;1708169;82;20993;-80
2022/06/07 07:31:22;;;;;;;6.45;3.40;;;;;;;25.23;44.24;100759.59;1714890;81;22869;-82
2022/06/07 07:33:48;;;;;;;5.22;2.83;;;;;;;25.23;44.19;100752.06;1724449;80;21056;-80
2022/06/07 07:36:15;;;;;;;6.67;3.30;;;;;;;25.26;44.21;100751.35;1697759;82;21040;-80
2022/06/07 07:38:41;;;;;;;8.28;3.72;;;;;;;25.27;44.17;100755.77;1705534;82;21088;-81
2022/06/07 07:41:22;;;;;;;11.05;4.30;;;;;;;25.29;44.23;100746.47;1693447;81;21037;-86
2022/06/07 07:43:52;;;;;;;10.88;4.75;;;;;;;25.32;44.32;100756.11;1693074;83;21077;-84
2022/06/07 07:46:20;;;;;;;8.40;4.35;;;;;;;25.33;44.21;100754.34;1689990;82;21120;-77
2022/06/07 07:48:47;;;;;;;8.60;3.47;;;;;;;25.33;44.14;100752.17;1680975;82;21055;-80
2022/06/07 07:51:19;;;;;;;9.70;4.25;;;;;;;25.33;43.96;100752.95;1700530;81;21059;-81
2022/06/07 07:53:45;;;;;;;11.70;3.47;;;;;;;25.35;43.86;100756.80;1695909;82;21114;-84
2022/06/07 07:56:12;;;;;;;7.87;3.15;;;;;;;25.32;43.83;100749.96;1690015;83;21751;-79
2022/06/07 07:58:38;;;;;;;5.30;3.08;;;;;;;25.32;43.79;100751.35;1639428;84;21722;-81
2022/06/07 08:01:16;;;;;;;13.83;2.33;;;;;;;25.32;43.70;100748.56;1705329;81;21080;-82
2022/06/07 08:03:44;;;;;;;6.53;2.33;;;;;;;25.32;43.47;100743.58;1667898;82;21514;-84
2022/06/07 08:06:15;;;;;;;8.03;2.40;;;;;;;25.32;43.47;100741.61;1699151;82;21501;-80
2022/06/07 08:08:41;;;;;;;6.60;3.60;;;;;;;25.33;43.41;100737.64;1690672;82;21113;-82
2022/06/07 08:11:08;;;;;;;5.33;3.55;;;;;;;25.32;43.30;100736.61;1690777;82;21571;-82
2022/06/07 08:13:34;;;;;;;5.00;3.75;;;;;;;25.33;43.21;100743.20;1687219;83;21125;-81
2022/06/07 08:16:01;;;;;;;10.45;4.53;;;;;;;25.33;43.28;100744.59;1689516;82;21077;-80
2022/06/07 08:18:29;;;;;;;10.15;3.27;;;;;;;25.34;43.36;100732.88;1707478;81;21750;-81
2022/06/07 08:21:00;;;;;;;4.70;3.08;;;;;;;25.34;43.27;100735.09;1709770;83;21035;-84
2022/06/07 08:23:28;;;;;;;4.15;2.72;;;;;;;25.34;43.28;100737.88;1701663;81;21072;-80
2022/06/07 08:26:01;;;;;;;5.53;3.45;;;;;;;25.36;43.21;100743.11;1710510;81;21139;-79
2022/06/07 08:28:28;;;;;;;4.35;2.80;;;;;;;25.34;43.03;100732.30;1702201;81;21068;-82
2022/06/07 08:30:54;;;;;;;5.03;2.92;;;;;;;25.35;43.07;100736.72;1743618;80;21056;-82
2022/06/07 08:39:04;;;;;;;10.68;2.83;;;;;;;25.37;42.98;100724.66;1708887;81;21047;-87
2022/06/07 08:41:36;;;;;;;8.58;2.27;;;;;;;25.38;43.04;100717.09;1721063;81;20980;-84
2022/06/07 08:44:10;;;;;;;5.65;2.45;;;;;;;25.40;43.03;100711.99;1708684;83;21064;-84
2022/06/07 08:46:37;;;;;;;15.05;3.25;;;;;;;25.42;43.05;100715.22;1722903;81;21252;-86
2022/06/07 08:49:04;;;;;;;13.22;2.98;;;;;;;25.43;43.01;100712.09;1721263;81;21083;-86
2022/06/07 08:51:39;;;;;;;7.42;2.22;;;;;;;25.44;42.82;100717.09;1714013;81;21107;-86
2022/06/07 08:54:18;;;;;;;10.75;2.17;;;;;;;25.44;42.82;100710.94;1708577;81;21115;-82
2022/06/07 08:56:44;;;;;;;6.60;2.12;;;;;;;25.46;42.74;100708.59;1719789;81;21061;-84
2022/06/07 08:59:21;;;;;;;5.22;1.77;;;;;;;25.47;42.79;100700.47;1712522;81;21124;-81
2022/06/07 09:02:15;;;;;;;7.87;1.70;;;;;;;25.48;42.50;100704.89;1723258;81;21108;-81
2022/06/07 09:04:42;;;;;;;7.80;1.60;;;;;;;25.48;42.30;100703.50;1729894;81;21090;-81
2022/06/07 09:07:19;;;;;;;6.60;1.62;;;;;;;25.48;42.34;100702.10;1731194;80;21561;-84
2022/06/07 09:12:35;;;;;;;7.40;1.87;;;;;;;25.48;41.95;100697.92;1718140;81;21661;-83
2022/06/07 09:15:14;;;;;;;5.05;1.50;;;;;;;25.49;41.78;100695.95;1725763;81;21035;-81
2022/06/07 09:17:47;;;;;;;3.12;1.40;;;;;;;25.48;41.72;100695.72;1726948;81;21894;-85
2022/06/07 09:20:17;;;;;;;4.65;1.52;;;;;;;25.50;41.62;100700.94;1722167;80;21715;-81
2022/06/07 09:23:07;;;;;;;2.80;1.62;;;;;;;25.50;41.39;100691.20;1702209;82;21441;-82
2022/06/07 09:25:43;;;;;;;1.82;1.42;;;;;;;25.47;41.19;100688.52;1707297;82;21216;-81
2022/06/07 09:28:14;;;;;;;3.60;1.35;;;;;;;25.47;40.90;100687.94;1691751;82;21750;-83
2022/06/07 09:30:44;;;;;;;6.85;1.50;;;;;;;25.47;40.74;100692.11;1707352;83;21095;-85
2022/06/07 09:33:33;;;;;;;5.80;1.50;;;;;;;25.49;40.66;100683.42;1714973;82;21483;-83
2022/06/07 09:36:09;;;;;;;3.25;1.55;;;;;;;25.50;40.65;100684.23;1741072;80;21066;-83
2022/06/07 09:38:42;;;;;;;3.25;1.40;;;;;;;25.53;40.72;100682.13;1709634;80;21164;-84
2022/06/07 09:41:37;;;;;;;4.25;1.40;;;;;;;25.55;40.66;100677.02;1686434;83;21118;-84
2022/06/07 09:44:31;;;;;;;3.60;1.62;;;;;;;25.56;40.58;100674.47;1637658;85;21040;-84
2022/06/07 09:47:05;;;;;;;3.98;1.47;;;;;;;25.56;40.49;100669.72;1688875;83;21042;-86
2022/06/07 09:49:40;;;;;;;3.33;1.60;;;;;;;25.57;40.53;100671.92;1692266;82;21193;-85
2022/06/07 09:52:24;;;;;;;9.38;1.70;;;;;;;25.56;40.49;100668.32;1681779;83;21906;-84
2022/06/07 09:55:21;;;;;;;4.25;1.75;;;;;;;25.58;40.52;100664.61;1683121;84;21089;-83
2022/06/07 09:57:58;;;;;;;8.90;1.70;;;;;;;25.61;40.83;100657.51;1694561;83;21107;-84
2022/06/07 10:00:50;;;;;;;6.15;1.40;;;;;;;25.62;40.94;100655.77;1674553;82;21266;-83
2022/06/07 10:03:36;;;;;;;5.40;1.50;;;;;;;25.64;40.90;100660.39;1685864;82;21124;-84
2022/06/07 10:06:14;;;;;;;4.65;1.70;;;;;;;25.67;40.90;100665.27;1691629;82;21138;-84
2022/06/07 10:09:33;;;;;;;6.00;1.60;;;;;;;25.67;40.80;100658.30;1705028;82;21487;-84
2022/06/07 10:12:30;;;;;;;8.13;1.87;;;;;;;25.68;40.83;100657.12;1691485;82;21077;-83
2022/06/07 10:15:29;;;;;;;7.58;1.92;;;;;;;25.68;40.95;100652.12;1692613;83;22186;-83
2022/06/07 10:18:22;;;;;;;7.15;1.92;;;;;;;25.68;41.20;100657.70;1695699;81;21587;-83
2022/06/07 10:21:32;;;;;;;6.92;2.10;;;;;;;25.67;41.36;100650.52;1686208;84;21272;-85
2022/06/07 10:24:37;;;;;;;12.55;2.10;;;;;;;25.67;41.43;100649.13;1700912;82;21092;-83
2022/06/07 10:27:22;;;;;;;14.60;2.42;;;;;;;25.68;41.59;100647.95;1699953;82;21044;-83
2022/06/07 10:30:15;;;;;;;17.60;2.40;;;;;;;25.69;41.72;100644.00;1703125;82;21108;-85
2022/06/07 10:32:53;;;;;;;21.82;2.65;;;;;;;25.70;41.83;100642.27;1701594;82;21146;-84
2022/06/07 10:35:52;;;;;;;14.45;2.10;;;;;;;25.70;41.95;100641.45;1667425;82;21613;-84
2022/06/07 10:38:35;;;;;;;4.87;1.72;;;;;;;25.72;41.96;100633.52;1727802;81;21547;-83
2022/06/07 10:41:10;;;;;;;6.17;2.17;;;;;;;25.72;41.71;100637.13;1711816;82;21113;-85
2022/06/07 10:43:54;;;;;;;3.25;1.90;;;;;;;25.71;41.51;100636.11;1711796;82;21028;-85
2022/06/07 10:46:21;;;;;;;7.83;2.00;;;;;;;25.69;41.24;100637.03;1710059;82;21432;-85
2022/06/07 10:48:54;;;;;;;4.05;1.80;;;;;;;25.67;41.23;100632.41;1711184;81;21771;-85
2022/06/07 10:54:35;;;;;;;7.30;1.92;;;;;;;25.65;41.28;100631.95;1713642;82;21293;-85
2022/06/07 10:57:32;;;;;;;12.13;1.92;;;;;;;25.66;41.26;100630.78;1700957;80;21112;-85
2022/06/07 11:00:20;;;;;;;11.70;1.90;;;;;;;25.64;41.27;100630.32;1702541;82;21025;-83
2022/06/07 11:03:16;;;;;;;15.65;2.02;;;;;;;25.64;41.29;100634.50;1699989;81;21250;-85
2022/06/07 11:11:42;;;;;;;12.65;1.90;;;;;;;25.64;41.59;100627.53;1708779;82;21058;-82
2022/06/07 11:14:38;;;;;;;4.50;1.62;;;;;;;25.63;41.50;100634.30;1717327;82;21049;-86
2022/06/07 11:17:31;;;;;;;7.17;2.00;;;;;;;25.60;41.38;100625.23;1692182;82;21317;-80
2022/06/07 11:19:59;;;;;;;4.65;1.62;;;;;;;25.59;41.32;100622.24;1717418;80;21117;-78
2022/06/07 11:22:35;;;;;;;9.05;1.72;;;;;;;25.57;41.23;100617.59;1719471;82;21047;-80
2022/06/07 11:25:28;;;;;;;6.95;1.55;;;;;;;25.56;41.21;100617.36;1696704;81;21032;-80
2022/06/07 11:28:07;;;;;;;2.50;1.17;;;;;;;25.56;41.11;100618.17;1725508;81;21071;-79
2022/06/07 11:30:41;;;;;;;5.25;1.77;;;;;;;25.54;41.10;100614.14;1717838;81;21120;-79
2022/06/07 11:33:39;;;;;;;5.33;1.50;;;;;;;25.54;41.05;100615.53;1729789;81;21621;-83
2022/06/07 11:36:29;;;;;;;5.72;1.67;;;;;;;25.54;41.04;100614.14;1729768;81;21043;-85
2022/06/07 11:39:07;;;;;;;4.33;1.70;;;;;;;25.53;41.05;100618.05;1702406;82;21076;-81
2022/06/07 11:41:44;;;;;;;7.90;2.00;;;;;;;25.53;41.04;100614.72;1693347;82;21068;-84
2022/06/07 11:44:50;;;;;;;8.45;1.70;;;;;;;25.53;41.12;100604.97;1667040;83;21312;-79
2022/06/07 11:47:23;;;;;;;9.75;1.80;;;;;;;25.54;41.22;100605.78;1690683;81;21413;-79
2022/06/07 11:49:57;;;;;;;3.77;1.80;;;;;;;25.54;41.23;100600.20;1699877;82;21054;-78
2022/06/07 11:52:27;;;;;;;4.08;1.50;;;;;;;25.55;41.25;100603.20;1703181;82;21148;-79
2022/06/07 11:55:00;;;;;;;;;;;;;;;25.56;41.17;100604.83;1697791;82;21518;-81
2022/06/07 11:57:40;;;;;;;15.93;2.02;;;;;;;25.56;41.33;100590.89;1699217;82;21081;-81
2022/06/07 12:00:24;;;;;;;10.20;1.92;;;;;;;25.58;41.47;100595.55;1710014;82;21164;-81
2022/06/07 12:03:08;;;;;;;12.45;2.10;;;;;;;25.60;41.32;100587.05;1702484;82;21105;-79
2022/06/07 12:05:45;;;;;;;9.90;1.92;;;;;;;25.62;41.17;100588.91;1702016;82;21112;-84
2022/06/07 12:08:52;;;;;;;8.03;1.80;;;;;;;25.63;41.10;100590.50;1709835;82;21092;-82
2022/06/07 12:11:37;;;;;;;10.90;1.95;;;;;;;25.66;41.03;100586.20;1698445;82;22183;-79
2022/06/07 12:14:43;;;;;;;12.47;2.00;;;;;;;25.66;40.93;100585.63;1698764;81;21566;-81